Time;durP1;ratioP1;P1;durP2;ratioP2;P2;SDS_P1;SDS_P2;PMS_P1;PMS_P2;Temp;Humidity;BMP_temperature;BMP_pressure;BME280_temperature;BME280_humidity;BME280_pressure;Samples;Min_cycle;Max_cycle;Signal;HPM_P1;HPM_P2
2021/05/18 00:00:34;;;;;;;5.50;3.40;;;11.20;99.90;;;;;;5096553;28;20552;-72
2021/05/18 00:03:02;;;;;;;7.53;4.63;;;11.20;99.90;;;;;;5096547;28;20531;-72
2021/05/18 00:05:29;;;;;;;5.93;4.10;;;11.20;99.90;;;;;;5094967;28;21100;-72
2021/05/18 00:07:58;;;;;;;8.00;4.63;;;11.20;99.90;;;;;;5096283;28;20518;-72
2021/05/18 00:13:15;;;;;;;5.47;3.93;;;11.20;99.90;;;;;;5096511;28;20428;-71
2021/05/18 00:15:43;;;;;;;9.53;4.13;;;11.20;99.90;;;;;;5096833;28;20498;-72
2021/05/18 00:18:11;;;;;;;6.73;4.53;;;11.20;99.90;;;;;;5096098;28;20853;-72
2021/05/18 00:20:39;;;;;;;9.70;5.27;;;11.20;99.90;;;;;;5086397;28;20536;-72
2021/05/18 00:23:08;;;;;;;7.93;5.07;;;11.20;99.90;;;;;;5076542;28;20946;-72
2021/05/18 00:25:35;;;;;;;8.03;5.10;;;11.20;99.90;;;;;;5076456;28;20461;-72
2021/05/18 00:28:02;;;;;;;8.50;5.30;;;11.20;99.90;;;;;;5076447;28;20459;-71
2021/05/18 00:30:30;;;;;;;9.07;5.87;;;11.20;99.90;;;;;;5076710;28;20484;-72
2021/05/18 00:32:58;;;;;;;8.30;5.30;;;11.20;99.90;;;;;;5076404;28;20528;-72
2021/05/18 00:35:25;;;;;;;9.63;6.27;;;11.10;99.90;;;;;;5076096;28;20947;-72
2021/05/18 00:37:54;;;;;;;8.03;5.93;;;11.20;99.90;;;;;;5088270;28;20536;-72
2021/05/18 00:40:22;;;;;;;12.27;7.00;;;11.20;99.90;;;;;;5096410;28;20471;-71
2021/05/18 00:42:51;;;;;;;9.30;6.40;;;11.20;99.90;;;;;;5096053;28;20484;-71
2021/05/18 00:45:27;;;;;;;11.00;7.80;;;11.20;99.90;;;;;;5096568;28;20512;-72
2021/05/18 00:47:55;;;;;;;13.50;7.80;;;11.20;99.90;;;;;;5096149;28;20483;-72
2021/05/18 00:50:22;;;;;;;10.80;7.33;;;11.20;99.90;;;;;;5095893;28;20529;-72
2021/05/18 00:52:50;;;;;;;10.27;6.77;;;11.20;99.90;;;;;;5096307;28;20497;-72
2021/05/18 00:55:21;;;;;;;17.50;7.43;;;11.20;99.90;;;;;;5096280;28;20545;-71
2021/05/18 01:00:34;;;;;;;14.60;8.87;;;11.10;99.90;;;;;;5079767;28;20459;-72
2021/05/18 01:03:02;;;;;;;22.87;10.07;;;11.00;99.90;;;;;;5080091;28;20510;-72
2021/05/18 01:08:14;;;;;;;13.53;7.97;;;11.00;99.90;;;;;;5079505;28;20900;-72
2021/05/18 01:10:41;;;;;;;13.03;8.60;;;10.80;99.90;;;;;;5079876;28;20551;-71
2021/05/18 01:13:10;;;;;;;17.20;7.73;;;10.70;99.90;;;;;;5079915;28;20453;-72
2021/05/18 01:15:38;;;;;;;19.20;8.00;;;10.70;99.90;;;;;;5079581;28;20494;-72
2021/05/18 01:18:06;;;;;;;12.20;7.07;;;10.60;99.90;;;;;;5091246;28;20475;-71
2021/05/18 01:20:44;;;;;;;14.03;8.00;;;10.50;99.90;;;;;;5099916;28;20464;-72
2021/05/18 01:23:11;;;;;;;14.93;6.47;;;10.60;99.90;;;;;;5100032;28;20448;-71
2021/05/18 01:25:38;;;;;;;19.23;6.20;;;10.50;99.90;;;;;;5099865;28;20451;-71
2021/05/18 01:28:05;;;;;;;12.77;5.47;;;10.40;99.90;;;;;;5099375;28;20456;-71
2021/05/18 01:30:33;;;;;;;9.30;5.10;;;10.30;99.90;;;;;;5094424;28;20904;-71
2021/05/18 01:33:00;;;;;;;12.63;5.00;;;10.30;99.90;;;;;;5079612;28;20452;-72
2021/05/18 01:35:36;;;;;;;9.50;4.97;;;10.40;99.90;;;;;;5079223;28;20892;-71
2021/05/18 01:38:07;;;;;;;11.40;6.03;;;10.20;99.90;;;;;;5079180;28;20493;-71
2021/05/18 01:43:20;;;;;;;15.63;6.13;;;10.20;99.90;;;;;;5085640;28;20435;-71
2021/05/18 01:45:47;;;;;;;12.37;6.10;;;10.20;99.90;;;;;;5099710;28;20905;-72
2021/05/18 01:48:16;;;;;;;20.60;7.93;;;10.20;99.90;;;;;;5099765;28;20541;-72
2021/05/18 01:50:47;;;;;;;11.73;6.60;;;10.10;99.90;;;;;;5099399;28;20474;-72
2021/05/18 01:53:17;;;;;;;13.00;6.40;;;10.10;99.90;;;;;;5098720;28;20756;-72
2021/05/18 01:55:54;;;;;;;8.63;4.97;;;10.10;99.90;;;;;;5099052;28;20471;-72
2021/05/18 01:58:26;;;;;;;12.03;6.63;;;10.00;99.90;;;;;;5099489;28;20435;-72
2021/05/18 02:00:59;;;;;;;13.00;7.47;;;10.10;99.90;;;;;;5099371;28;20464;-72
2021/05/18 02:03:27;;;;;;;16.00;7.60;;;10.10;99.90;;;;;;5099602;28;20444;-72
2021/05/18 02:05:56;;;;;;;12.83;8.13;;;10.10;99.90;;;;;;5079054;28;20464;-73
2021/05/18 02:08:24;;;;;;;15.73;7.50;;;10.10;99.90;;;;;;5077044;28;20868;-72
2021/05/18 02:10:52;;;;;;;14.03;7.73;;;10.00;99.90;;;;;;5078756;28;20464;-72
2021/05/18 02:13:19;;;;;;;11.90;6.17;;;10.00;99.90;;;;;;5078738;28;20464;-72
2021/05/18 02:15:51;;;;;;;12.70;7.87;;;9.90;99.90;;;;;;5079721;28;20760;-72
2021/05/18 02:18:47;;;;;;;19.93;7.57;;;9.90;99.90;;;;;;5078408;28;20485;-72
2021/05/18 02:26:53;;;;;;;18.20;6.07;;;9.90;99.90;;;;;;5154952;27;20872;-73
2021/05/18 02:29:20;;;;;;;14.90;7.07;;;9.80;99.90;;;;;;5155486;27;20876;-72
2021/05/18 02:31:49;;;;;;;15.13;7.57;;;9.80;99.90;;;;;;5154177;27;20453;-72
2021/05/18 02:34:16;;;;;;;13.23;7.90;;;9.90;99.90;;;;;;5154468;27;20552;-72
2021/05/18 02:36:43;;;;;;;14.13;6.27;;;10.00;99.90;;;;;;5155255;27;20865;-73
2021/05/18 02:39:11;;;;;;;13.13;6.37;;;9.90;99.90;;;;;;5154831;27;20449;-73
2021/05/18 02:41:38;;;;;;;16.33;6.00;;;9.70;99.90;;;;;;5154940;27;20506;-72
2021/05/18 02:44:09;;;;;;;13.27;7.17;;;9.70;99.90;;;;;;5154914;27;20460;-72
2021/05/18 02:49:22;;;;;;;13.40;6.23;;;9.80;99.90;;;;;;5155254;27;20725;-72
2021/05/18 02:51:49;;;;;;;13.43;7.23;;;9.70;99.90;;;;;;5145891;27;20530;-72
2021/05/18 02:54:22;;;;;;;11.50;6.37;;;9.60;99.90;;;;;;5155451;27;20957;-72
2021/05/18 02:56:52;;;;;;;13.47;6.87;;;9.70;99.90;;;;;;5155008;27;20449;-72
2021/05/18 02:59:19;;;;;;;11.67;6.47;;;9.70;99.90;;;;;;5155309;27;20445;-72
2021/05/18 03:01:54;;;;;;;15.00;7.00;;;9.70;99.90;;;;;;5154188;27;20710;-72
2021/05/18 03:04:22;;;;;;;16.40;7.20;;;9.80;99.90;;;;;;5133941;27;20465;-72
2021/05/18 03:06:50;;;;;;;13.43;8.23;;;9.80;99.90;;;;;;5134106;27;20802;-72
2021/05/18 03:09:18;;;;;;;14.90;7.37;;;9.80;99.90;;;;;;5134660;27;20453;-72
2021/05/18 03:11:52;;;;;;;13.03;6.53;;;9.80;99.90;;;;;;5133991;27;20503;-72
2021/05/18 03:14:20;;;;;;;12.87;6.60;;;9.80;99.90;;;;;;5133731;27;20458;-71
2021/05/18 03:16:48;;;;;;;17.33;8.20;;;9.80;99.90;;;;;;5146036;27;20907;-72
2021/05/18 03:19:16;;;;;;;13.27;6.07;;;9.80;99.90;;;;;;5150118;27;20458;-71
2021/05/18 03:21:45;;;;;;;14.60;7.73;;;9.70;99.90;;;;;;5133543;27;20452;-71
2021/05/18 03:24:13;;;;;;;11.60;6.30;;;9.80;99.90;;;;;;5133183;27;20861;-72
2021/05/18 03:26:45;;;;;;;8.73;5.10;;;9.70;99.90;;;;;;5133365;27;20454;-72
2021/05/18 03:29:15;;;;;;;10.53;5.20;;;9.80;99.90;;;;;;5133354;27;20450;-72
2021/05/18 03:34:36;;;;;;;15.27;5.37;;;9.70;99.90;;;;;;5126629;27;20434;-71
2021/05/18 03:37:09;;;;;;;13.50;6.17;;;9.80;99.90;;;;;;5140629;27;20457;-72
2021/05/18 03:39:37;;;;;;;9.00;4.70;;;9.80;99.90;;;;;;5139875;27;20531;-71
2021/05/18 03:42:09;;;;;;;13.13;5.27;;;9.60;99.90;;;;;;5136538;27;20497;-71
2021/05/18 03:44:52;;;;;;;8.53;4.80;;;9.60;99.90;;;;;;5121770;27;20446;-71
2021/05/18 03:52:59;;;;;;;13.50;5.10;;;9.70;99.90;;;;;;5129507;27;20493;-72
2021/05/18 04:04:04;;;;;;;11.23;4.37;;;9.80;99.90;;;;;;5119478;27;20566;-71
2021/05/18 04:12:12;;;;;;;12.27;5.00;;;9.80;99.90;;;;;;5118643;27;20514;-71
2021/05/18 04:17:26;;;;;;;12.00;4.60;;;9.80;99.90;;;;;;5118483;27;20449;-71
2021/05/18 04:20:02;;;;;;;10.70;5.13;;;9.80;99.90;;;;;;5118459;27;20459;-71
2021/05/18 04:22:51;;;;;;;11.70;5.00;;;9.80;99.90;;;;;;5134931;27;20546;-70
2021/05/18 04:39:16;;;;;;;13.13;6.57;;;9.70;99.90;;;;;;5138165;27;20494;-72
2021/05/18 04:50:33;;;;;;;11.83;5.03;;;9.70;99.90;;;;;;5014804;28;20537;-72
2021/05/18 04:53:11;;;;;;;9.40;4.73;;;9.60;99.90;;;;;;5093828;27;20931;-72
2021/05/18 05:01:12;;;;;;;16.20;4.37;;;13.20;99.90;;;;;;5137846;27;20437;-72
2021/05/18 05:04:00;;;;;;;14.03;4.47;;;13.30;99.90;;;;;;5136223;27;20569;-72
2021/05/18 05:09:22;;;;;;;9.63;4.13;;;13.30;99.90;;;;;;5135986;27;20450;-72
2021/05/18 05:12:37;;;;;;;13.80;4.97;;;13.40;99.90;;;;;;5136200;27;20453;-70
2021/05/18 05:15:07;;;;;;;12.10;5.83;;;13.30;99.90;;;;;;5134009;27;20454;-70
2021/05/18 05:17:39;;;;;;;12.53;4.50;;;14.50;99.90;;;;;;5130887;27;20847;-72
2021/05/18 05:20:11;;;;;;;10.23;3.90;;;13.80;99.90;;;;;;5120561;27;20535;-72
2021/05/18 05:22:43;;;;;;;11.30;5.33;;;13.50;99.90;;;;;;5131885;27;20477;-71
2021/05/18 05:25:14;;;;;;;7.10;3.10;;;13.90;99.90;;;;;;5135264;27;20446;-71
2021/05/18 05:27:41;;;;;;;7.23;3.60;;;13.20;99.90;;;;;;5132797;27;20451;-72
2021/05/18 05:30:09;;;;;;;13.23;4.23;;;13.20;99.90;;;;;;5125695;27;20461;-71
2021/05/18 05:32:39;;;;;;;11.37;3.60;;;12.10;99.90;;;;;;5136434;27;20450;-73
2021/05/18 05:35:08;;;;;;;30.10;5.03;;;12.40;99.90;;;;;;5135497;27;20446;-72
2021/05/18 05:37:37;;;;;;;6.40;4.07;;;12.20;99.90;;;;;;5134681;27;20447;-72
2021/05/18 05:40:05;;;;;;;8.97;4.27;;;12.80;99.90;;;;;;5137022;27;20741;-72
2021/05/18 05:42:36;;;;;;;13.87;3.73;;;11.90;99.90;;;;;;5136218;27;20547;-72
2021/05/18 05:45:08;;;;;;;14.00;4.50;;;10.80;99.90;;;;;;5135966;27;20485;-72
2021/05/18 05:47:35;;;;;;;7.93;4.00;;;12.50;99.90;;;;;;5135807;27;20997;-72
2021/05/18 05:50:02;;;;;;;9.43;4.10;;;12.20;99.90;;;;;;5135471;27;20529;-71
2021/05/18 05:52:32;;;;;;;8.67;4.60;;;13.10;99.90;;;;;;5136663;27;20468;-72
2021/05/18 05:54:59;;;;;;;8.90;4.13;;;12.40;99.90;;;;;;5137120;27;20743;-72
2021/05/18 05:57:26;;;;;;;10.63;4.90;;;13.50;99.90;;;;;;5135440;27;20972;-71
2021/05/18 05:59:53;;;;;;;8.17;4.27;;;13.90;99.90;;;;;;5125863;27;20455;-72
2021/05/18 06:02:20;;;;;;;9.33;3.37;;;13.80;99.90;;;;;;5136022;27;20773;-72
2021/05/18 06:04:47;;;;;;;10.70;4.37;;;11.90;99.90;;;;;;5131582;27;20458;-72
2021/05/18 06:07:15;;;;;;;9.97;4.03;;;11.40;99.90;;;;;;5134639;27;20749;-72
2021/05/18 06:09:43;;;;;;;13.93;4.30;;;11.30;99.90;;;;;;5135999;27;20889;-71
2021/05/18 06:12:22;;;;;;;8.40;3.73;;;11.30;99.90;;;;;;5135548;27;20442;-72
2021/05/18 06:15:05;;;;;;;12.00;3.90;;;12.80;99.90;;;;;;5136184;27;20462;-71
2021/05/18 06:18:04;;;;;;;8.20;3.40;;;13.20;99.90;;;;;;5128250;27;20885;-72
2021/05/18 06:43:05;;;;;;;7.43;2.50;;;12.00;99.90;;;;;;5124670;27;20567;-72
2021/05/18 06:45:55;;;;;;;9.07;3.20;;;11.80;99.90;;;;;;5135008;27;20715;-72
2021/05/18 06:48:25;;;;;;;15.53;5.63;;;11.60;99.90;;;;;;5135203;27;20458;-73
2021/05/18 06:50:52;;;;;;;6.87;2.40;;;12.10;99.90;;;;;;5134910;27;20450;-72
2021/05/18 06:53:19;;;;;;;7.90;2.63;;;12.10;99.90;;;;;;5125923;27;20474;-73
2021/05/18 06:55:48;;;;;;;7.20;2.77;;;12.30;99.90;;;;;;5114049;27;20462;-73
2021/05/18 06:58:34;;;;;;;10.70;3.63;;;12.00;99.90;;;;;;5114643;27;20450;-72
2021/05/18 07:01:04;;;;;;;14.20;3.60;;;12.30;99.90;;;;;;5116337;27;20461;-73
2021/05/18 07:03:36;;;;;;;9.50;3.43;;;12.60;99.90;;;;;;5129569;27;20482;-73
2021/05/18 07:06:20;;;;;;;5.93;2.80;;;12.60;99.90;;;;;;5130839;27;20461;-73
2021/05/18 07:08:56;;;;;;;6.90;2.57;;;12.80;99.90;;;;;;5128735;27;20481;-72
2021/05/18 07:11:30;;;;;;;4.20;2.37;;;13.10;99.90;;;;;;5139022;27;20527;-72
2021/05/18 07:14:01;;;;;;;6.13;2.60;;;12.50;99.90;;;;;;5137467;27;20467;-73
2021/05/18 07:16:31;;;;;;;7.93;3.60;;;12.30;99.90;;;;;;5119960;27;20955;-73
2021/05/18 07:19:02;;;;;;;5.70;2.63;;;12.30;99.90;;;;;;5121328;27;20734;-72
2021/05/18 07:21:31;;;;;;;9.20;3.00;;;12.20;99.90;;;;;;5130703;27;20438;-73
2021/05/18 07:24:04;;;;;;;6.10;2.90;;;12.40;99.90;;;;;;5123303;27;20478;-72
2021/05/18 07:26:34;;;;;;;5.60;2.80;;;12.40;99.90;;;;;;5138708;27;20450;-73
2021/05/18 07:29:03;;;;;;;9.07;2.90;;;12.60;99.90;;;;;;5139038;27;20477;-73
2021/05/18 07:31:34;;;;;;;8.20;2.90;;;12.40;99.90;;;;;;5139158;27;20548;-73
2021/05/18 07:34:03;;;;;;;9.90;3.93;;;12.20;99.90;;;;;;5138449;27;20514;-73
2021/05/18 07:36:31;;;;;;;6.77;3.43;;;12.30;99.90;;;;;;5138336;27;20548;-73
2021/05/18 07:39:08;;;;;;;7.47;3.60;;;12.30;99.90;;;;;;5134113;27;20453;-72
2021/05/18 07:41:36;;;;;;;6.40;2.87;;;12.30;99.90;;;;;;5139459;27;20949;-73
2021/05/18 07:44:06;;;;;;;10.07;4.07;;;12.40;99.90;;;;;;5137964;27;20481;-73
2021/05/18 07:46:38;;;;;;;6.07;2.80;;;12.30;99.90;;;;;;5136719;27;20509;-72
2021/05/18 07:49:15;;;;;;;5.97;3.53;;;12.30;99.90;;;;;;5127661;27;20473;-73
2021/05/18 07:59:15;;;;;;;6.60;3.23;;;12.30;99.90;;;;;;5132186;27;20728;-73
2021/05/18 08:00:37;;;;;;;8.00;3.27;;;12.70;99.90;;;;;;5135901;27;20463;-72
2021/05/18 08:05:56;;;;;;;6.43;3.20;;;13.10;99.90;;;;;;5122738;27;20440;-72
2021/05/18 08:08:23;;;;;;;6.70;3.50;;;13.10;99.90;;;;;;5133401;27;20522;-72
2021/05/18 08:10:52;;;;;;;6.33;5.10;;;12.80;99.90;;;;;;5138903;27;20465;-71
2021/05/18 08:13:21;;;;;;;5.23;3.30;;;12.70;99.90;;;;;;5139263;27;20465;-72
2021/05/18 08:16:40;;;;;;;5.60;3.10;;;12.80;99.90;;;;;;5134062;27;20452;-72
2021/05/18 08:22:28;;;;;;;4.33;2.93;;;13.10;99.90;;;;;;5055599;28;20493;-73
2021/05/18 09:49:49;;;;;;;5.27;2.33;;;13.40;99.90;;;;;;5138278;27;20773;-73
2021/05/18 10:36:39;;;;;;;3.07;1.60;;;13.80;99.90;;;;;;5117738;27;20455;-73
2021/05/18 10:39:25;;;;;;;3.70;2.43;;;14.30;99.90;;;;;;5120588;27;20561;-73
2021/05/18 10:42:12;;;;;;;3.30;1.87;;;14.70;99.90;;;;;;5135133;27;20463;-74
2021/05/18 10:45:03;;;;;;;2.57;1.73;;;14.40;99.90;;;;;;5117928;27;20467;-75
2021/05/18 10:47:46;;;;;;;3.83;1.90;;;14.20;99.90;;;;;;5128046;27;20517;-73
2021/05/18 10:50:14;;;;;;;3.33;2.00;;;13.90;99.90;;;;;;5139443;27;20727;-74
2021/05/18 10:52:41;;;;;;;3.70;2.40;;;14.00;99.90;;;;;;5138842;27;20442;-73
2021/05/18 10:55:09;;;;;;;3.23;2.20;;;13.90;99.90;;;;;;5141035;27;20454;-74
2021/05/18 10:57:37;;;;;;;3.50;2.43;;;14.00;99.90;;;;;;5139429;27;20996;-73
2021/05/18 11:00:07;;;;;;;4.20;2.13;;;14.20;99.90;;;;;;5137493;27;20597;-74
2021/05/18 11:02:39;;;;;;;3.33;1.90;;;14.10;99.90;;;;;;5137203;27;20446;-74
2021/05/18 11:05:12;;;;;;;4.77;2.33;;;14.10;99.90;;;;;;5138622;27;20442;-73
2021/05/18 11:07:43;;;;;;;3.63;2.53;;;14.40;99.90;;;;;;5138987;27;20446;-73
2021/05/18 11:10:18;;;;;;;4.37;3.00;;;14.00;99.90;;;;;;5136274;27;20450;-74
2021/05/18 11:12:46;;;;;;;3.73;2.23;;;13.80;99.90;;;;;;5131714;27;20452;-73
2021/05/18 11:15:22;;;;;;;4.00;2.37;;;14.40;99.90;;;;;;5138889;27;20454;-74
2021/05/18 11:17:54;;;;;;;3.33;2.27;;;14.10;99.90;;;;;;5137741;27;20453;-74
2021/05/18 11:20:36;;;;;;;7.60;2.43;;;14.30;99.90;;;;;;5137606;27;20480;-74
2021/05/18 11:23:22;;;;;;;3.70;2.10;;;14.30;99.90;;;;;;5136405;27;20481;-74
2021/05/18 11:25:54;;;;;;;4.50;2.37;;;14.40;99.90;;;;;;5138536;27;20486;-75
2021/05/18 11:28:25;;;;;;;7.10;2.50;;;14.40;99.90;;;;;;5132176;27;20555;-73
2021/05/18 11:30:56;;;;;;;4.03;2.60;;;14.30;99.90;;;;;;5130626;27;20454;-73
2021/05/18 11:33:30;;;;;;;3.10;1.90;;;14.30;99.90;;;;;;5141006;27;20457;-73
2021/05/18 11:36:04;;;;;;;3.63;1.90;;;13.90;99.90;;;;;;5127145;27;20512;-73
2021/05/18 11:38:35;;;;;;;3.90;2.03;;;13.90;99.90;;;;;;5135463;27;20548;-73
2021/05/18 11:41:02;;;;;;;3.10;2.07;;;14.20;99.90;;;;;;5124676;27;20516;-73
2021/05/18 11:43:37;;;;;;;6.33;2.40;;;14.60;99.90;;;;;;5137218;27;20485;-74
2021/05/18 11:46:07;;;;;;;4.30;1.63;;;14.30;99.90;;;;;;5132312;27;20449;-73
2021/05/18 11:48:39;;;;;;;4.17;1.63;;;14.30;99.90;;;;;;5136642;27;20462;-74
2021/05/18 11:51:09;;;;;;;6.90;2.50;;;14.70;99.90;;;;;;5130614;27;20809;-74
2021/05/18 11:53:40;;;;;;;4.37;2.23;;;14.70;99.90;;;;;;5138029;27;20449;-74
2021/05/18 11:56:49;;;;;;;4.20;1.90;;;15.20;99.90;;;;;;5134548;27;20509;-74
2021/05/18 11:59:19;;;;;;;3.47;1.70;;;15.00;99.90;;;;;;5133466;27;20465;-73
2021/05/18 12:02:14;;;;;;;6.83;2.10;;;15.10;99.90;;;;;;5138934;27;20940;-73
2021/05/18 12:04:42;;;;;;;3.90;1.80;;;14.70;99.90;;;;;;5138715;27;20508;-72
2021/05/18 12:07:17;;;;;;;3.97;1.80;;;14.80;99.90;;;;;;5123656;27;20461;-73
2021/05/18 12:09:48;;;;;;;4.30;1.97;;;14.50;99.90;;;;;;5139164;27;20446;-74
2021/05/18 12:12:18;;;;;;;4.80;1.83;;;14.20;99.90;;;;;;5139070;27;20877;-73
2021/05/18 12:15:12;;;;;;;3.60;1.67;;;14.80;99.90;;;;;;5138611;27;20943;-73
2021/05/18 12:17:42;;;;;;;5.60;2.30;;;14.70;99.90;;;;;;5119061;27;20474;-72
2021/05/18 12:20:17;;;;;;;3.70;2.20;;;15.10;99.90;;;;;;5119867;27;20450;-73
2021/05/18 12:22:46;;;;;;;5.10;1.93;;;15.30;99.90;;;;;;5118405;27;20478;-71
2021/05/18 12:25:28;;;;;;;3.80;1.90;;;14.80;99.90;;;;;;5139648;27;20457;-73
2021/05/18 12:27:57;;;;;;;4.67;2.17;;;14.90;99.90;;;;;;5137959;27;20923;-74
2021/05/18 12:30:40;;;;;;;3.53;1.87;;;14.50;99.90;;;;;;5137731;27;20495;-74
2021/05/18 12:33:14;;;;;;;4.00;2.27;;;14.90;99.90;;;;;;5131656;27;20470;-73
2021/05/18 12:35:44;;;;;;;5.17;2.20;;;15.20;99.90;;;;;;5125103;27;20457;-74
2021/05/18 12:38:27;;;;;;;6.13;3.70;;;15.20;99.90;;;;;;5123318;27;20501;-72
2021/05/18 12:41:25;;;;;;;4.80;2.33;;;15.40;99.90;;;;;;5133844;27;20465;-74
2021/05/18 12:44:18;;;;;;;4.80;3.00;;;14.90;99.90;;;;;;5130316;27;20910;-73
2021/05/18 12:47:05;;;;;;;5.00;2.50;;;15.00;99.90;;;;;;5131777;27;20890;-74
2021/05/18 12:49:45;;;;;;;8.33;2.90;;;15.00;99.90;;;;;;5132133;27;20877;-74
2021/05/18 12:52:22;;;;;;;4.80;2.47;;;15.30;99.90;;;;;;5140151;27;20472;-73
2021/05/18 12:54:54;;;;;;;5.70;2.50;;;15.20;99.90;;;;;;5135699;27;20513;-74
2021/05/18 12:57:27;;;;;;;4.53;2.43;;;15.10;99.90;;;;;;5117360;27;20581;-73
2021/05/18 13:00:08;;;;;;;4.50;2.43;;;15.10;99.90;;;;;;5133072;27;20606;-73
2021/05/18 13:02:42;;;;;;;4.23;2.30;;;14.90;99.90;;;;;;5131148;27;20458;-73
2021/05/18 13:05:19;;;;;;;5.43;3.10;;;14.90;99.90;;;;;;5136540;27;20442;-74
2021/05/18 13:08:07;;;;;;;5.10;3.17;;;15.40;99.90;;;;;;5136704;27;20465;-73
2021/05/18 13:10:49;;;;;;;5.37;2.93;;;15.30;99.90;;;;;;5134050;27;20514;-73
2021/05/18 13:13:18;;;;;;;4.63;3.10;;;15.30;99.90;;;;;;5137086;27;20853;-74
2021/05/18 13:15:49;;;;;;;6.53;3.10;;;15.20;99.90;;;;;;5138684;27;20876;-74
2021/05/18 13:18:26;;;;;;;4.17;2.43;;;15.00;99.90;;;;;;5117179;27;20524;-74
2021/05/18 13:21:00;;;;;;;7.93;3.20;;;15.00;99.90;;;;;;5115501;27;20442;-74
2021/05/18 13:23:33;;;;;;;6.70;2.63;;;15.00;99.90;;;;;;5115811;27;20743;-74
2021/05/18 13:28:58;;;;;;;5.30;3.20;;;15.20;99.90;;;;;;5137953;27;20488;-73
2021/05/18 13:31:29;;;;;;;5.27;2.93;;;15.40;99.90;;;;;;5137336;27;20443;-74
2021/05/18 13:33:58;;;;;;;4.73;2.77;;;15.30;99.90;;;;;;5133121;27;20469;-74
2021/05/18 13:36:32;;;;;;;5.93;2.77;;;15.30;99.90;;;;;;5119592;27;20450;-74
2021/05/18 13:38:59;;;;;;;4.80;2.70;;;15.70;99.90;;;;;;5117044;27;20501;-73
2021/05/18 13:41:30;;;;;;;6.13;3.00;;;15.40;99.90;;;;;;5118204;27;20494;-74
2021/05/18 13:44:05;;;;;;;4.13;2.47;;;15.50;99.90;;;;;;5124908;27;20482;-75
2021/05/18 13:47:14;;;;;;;5.07;3.10;;;15.30;99.90;;;;;;5138921;27;20448;-74
2021/05/18 13:50:07;;;;;;;5.00;2.87;;;15.40;99.90;;;;;;5129430;27;20457;-74
2021/05/18 13:52:39;;;;;;;5.47;2.80;;;15.70;99.90;;;;;;5137237;27;20458;-75
2021/05/18 13:55:08;;;;;;;3.53;1.80;;;15.60;99.90;;;;;;5125182;27;20442;-74
2021/05/18 14:01:12;;;;;;;4.87;2.50;;;15.60;99.90;;;;;;5117275;27;20541;-74
2021/05/18 14:03:40;;;;;;;4.37;2.40;;;15.50;99.90;;;;;;5137068;27;20509;-73
2021/05/18 14:06:16;;;;;;;5.90;3.30;;;15.40;99.90;;;;;;5139286;27;20457;-75
2021/05/18 14:08:44;;;;;;;4.13;2.30;;;15.40;99.90;;;;;;5132539;27;20537;-73
2021/05/18 14:11:14;;;;;;;4.37;2.10;;;15.20;99.90;;;;;;5126931;27;20938;-73
2021/05/18 14:13:45;;;;;;;6.40;2.40;;;15.10;99.90;;;;;;5136456;27;20487;-73
2021/05/18 14:16:15;;;;;;;4.53;2.13;;;15.20;99.90;;;;;;5129712;27;20482;-73
2021/05/18 14:18:47;;;;;;;4.60;2.40;;;14.90;99.90;;;;;;5126770;27;20454;-73
2021/05/18 14:21:25;;;;;;;4.93;3.23;;;14.80;99.90;;;;;;5135585;27;20892;-72
2021/05/18 14:24:10;;;;;;;4.20;2.00;;;14.90;99.90;;;;;;5116357;27;20491;-73
2021/05/18 14:27:18;;;;;;;4.93;2.47;;;14.90;99.90;;;;;;5120202;27;20942;-73
2021/05/18 14:29:54;;;;;;;5.30;1.97;;;14.70;99.90;;;;;;5092816;27;20459;-73
2021/05/18 14:32:22;;;;;;;4.90;2.20;;;15.00;99.90;;;;;;5132201;27;20485;-74
2021/05/18 14:34:55;;;;;;;6.83;2.10;;;14.60;99.90;;;;;;5136103;27;20461;-73
2021/05/18 14:37:23;;;;;;;5.03;2.20;;;14.40;99.90;;;;;;5137048;27;20493;-73
2021/05/18 14:39:58;;;;;;;4.63;2.70;;;14.30;99.90;;;;;;5135220;27;20464;-73
2021/05/18 14:45:20;;;;;;;4.07;2.40;;;14.10;99.90;;;;;;5125648;27;20446;-73
2021/05/18 14:47:55;;;;;;;3.90;2.00;;;14.40;99.90;;;;;;5131664;27;20859;-73
2021/05/18 14:54:00;;;;;;;4.40;2.40;;;14.50;99.90;;;;;;5122798;27;20458;-74
2021/05/18 14:56:38;;;;;;;4.90;2.10;;;14.60;99.90;;;;;;5115864;27;20554;-74
2021/05/18 14:59:08;;;;;;;4.07;2.00;;;14.80;99.90;;;;;;5116306;27;20450;-74
2021/05/18 15:01:45;;;;;;;4.50;2.47;;;14.70;99.90;;;;;;5134211;27;20508;-74
2021/05/18 15:04:14;;;;;;;4.10;2.40;;;14.60;99.90;;;;;;5135343;27;20477;-74
2021/05/18 15:06:48;;;;;;;5.20;2.10;;;14.40;99.90;;;;;;5137296;27;20445;-73
2021/05/18 15:09:29;;;;;;;4.73;2.30;;;14.30;99.90;;;;;;5123658;27;20764;-72
2021/05/18 15:11:56;;;;;;;4.07;2.10;;;14.50;99.90;;;;;;5136867;27;20518;-73
2021/05/18 15:14:23;;;;;;;5.70;2.83;;;14.50;99.90;;;;;;5137229;27;20533;-73
2021/05/18 15:17:00;;;;;;;3.03;2.10;;;14.60;99.90;;;;;;5122141;27;20443;-72
2021/05/18 15:19:30;;;;;;;4.67;2.40;;;14.50;99.90;;;;;;5116553;27;20442;-72
2021/05/18 15:21:58;;;;;;;5.47;2.40;;;14.60;99.90;;;;;;5115461;27;20516;-73
2021/05/18 15:24:27;;;;;;;4.23;2.00;;;14.60;99.90;;;;;;5115309;27;20511;-74
2021/05/18 15:26:54;;;;;;;3.70;1.93;;;14.60;99.90;;;;;;5117610;27;20466;-75
2021/05/18 15:29:24;;;;;;;3.57;2.03;;;14.90;99.90;;;;;;5121504;27;20447;-74
2021/05/18 15:31:52;;;;;;;5.77;2.20;;;14.70;99.90;;;;;;5138885;27;20445;-73
2021/05/18 15:34:20;;;;;;;3.70;1.97;;;14.70;99.90;;;;;;5137995;27;20976;-73
2021/05/18 15:36:57;;;;;;;4.80;3.27;;;14.60;99.90;;;;;;5139863;27;20510;-74
2021/05/18 15:39:31;;;;;;;3.70;1.90;;;14.80;99.90;;;;;;5139052;27;20442;-74
2021/05/18 15:41:58;;;;;;;6.30;2.17;;;15.00;99.90;;;;;;5139898;27;20563;-74
2021/05/18 15:44:26;;;;;;;4.17;2.00;;;15.00;99.90;;;;;;5138643;27;20473;-74
2021/05/18 15:46:54;;;;;;;3.30;1.67;;;15.00;99.90;;;;;;5139626;27;20437;-73
2021/05/18 15:49:25;;;;;;;3.10;1.77;;;15.10;99.90;;;;;;5145915;27;20443;-73
2021/05/18 15:51:56;;;;;;;4.47;2.17;;;15.00;99.90;;;;;;5142550;27;20446;-73
2021/05/18 15:54:26;;;;;;;5.83;1.97;;;14.90;99.90;;;;;;5135052;27;20476;-74
2021/05/18 15:56:57;;;;;;;3.50;1.93;;;15.10;99.90;;;;;;5120334;27;20496;-73
2021/05/18 15:59:29;;;;;;;4.30;1.50;;;14.70;99.90;;;;;;5121163;27;20530;-73
2021/05/18 16:02:03;;;;;;;2.97;1.67;;;14.90;99.90;;;;;;5138970;27;20938;-72
2021/05/18 16:04:56;;;;;;;5.17;2.13;;;15.00;99.90;;;;;;5140967;27;20481;-72
2021/05/18 16:07:28;;;;;;;7.73;1.50;;;15.00;99.90;;;;;;5121251;27;20467;-72
2021/05/18 16:09:58;;;;;;;3.00;1.43;;;15.10;99.90;;;;;;5121049;27;20454;-72
2021/05/18 16:12:25;;;;;;;3.53;1.67;;;15.20;99.90;;;;;;5119436;27;20494;-72
2021/05/18 16:14:55;;;;;;;4.30;1.30;;;15.40;99.90;;;;;;5118240;27;20462;-72
2021/05/18 16:17:22;;;;;;;3.77;1.37;;;15.30;99.90;;;;;;5116903;27;20471;-72
2021/05/18 16:19:50;;;;;;;3.77;0.90;;;15.50;99.90;;;;;;5119004;27;20553;-72
2021/05/18 16:22:18;;;;;;;3.57;1.07;;;15.20;99.90;;;;;;5117905;27;20450;-71
2021/05/18 16:24:45;;;;;;;3.30;1.10;;;15.10;99.90;;;;;;5117333;27;20482;-72
2021/05/18 16:27:16;;;;;;;3.20;1.20;;;15.20;99.90;;;;;;5117334;27;20448;-73
2021/05/18 16:29:43;;;;;;;3.90;1.60;;;15.10;99.90;;;;;;5118758;27;20462;-73
2021/05/18 16:32:11;;;;;;;2.60;1.30;;;14.80;99.90;;;;;;5118082;27;20458;-72
2021/05/18 16:34:38;;;;;;;5.90;1.83;;;14.90;99.90;;;;;;5115846;27;20455;-72
2021/05/18 16:37:06;;;;;;;4.27;1.23;;;14.90;99.90;;;;;;5118570;27;20502;-72
2021/05/18 16:39:33;;;;;;;4.87;1.07;;;15.20;99.90;;;;;;5119181;27;21100;-74
2021/05/18 16:42:00;;;;;;;2.77;0.97;;;15.30;99.90;;;;;;5116994;27;20453;-72
2021/05/18 16:44:29;;;;;;;3.67;1.10;;;15.20;99.90;;;;;;5126589;27;20496;-73
2021/05/18 16:46:56;;;;;;;2.90;1.03;;;15.10;99.90;;;;;;5136589;27;20550;-73
2021/05/18 16:49:23;;;;;;;3.60;1.03;;;14.90;99.90;;;;;;5137132;27;20878;-73
2021/05/18 16:51:50;;;;;;;3.73;1.40;;;14.90;99.90;;;;;;5138258;27;20893;-74
2021/05/18 16:54:24;;;;;;;6.70;1.30;;;14.90;99.90;;;;;;5136860;27;20485;-73
2021/05/18 16:56:52;;;;;;;3.23;1.00;;;15.00;99.90;;;;;;5137468;27;20480;-73
2021/05/18 16:59:19;;;;;;;3.30;1.10;;;14.90;99.90;;;;;;5135879;27;20446;-73
2021/05/18 17:01:48;;;;;;;3.00;1.03;;;14.70;99.90;;;;;;5122406;27;20455;-73
2021/05/18 17:04:17;;;;;;;3.17;0.90;;;14.60;99.90;;;;;;5131980;27;20607;-74
2021/05/18 17:06:45;;;;;;;2.77;0.93;;;14.60;99.90;;;;;;5116648;27;20449;-73
2021/05/18 17:09:16;;;;;;;2.40;0.80;;;14.60;99.90;;;;;;5117565;27;20458;-72
2021/05/18 17:11:44;;;;;;;4.40;1.10;;;14.30;99.90;;;;;;5117016;27;20519;-73
2021/05/18 17:14:13;;;;;;;2.90;0.93;;;13.80;99.90;;;;;;5116881;27;20450;-72
2021/05/18 17:16:47;;;;;;;2.93;1.27;;;13.50;99.90;;;;;;5116537;27;21011;-72
2021/05/18 17:19:14;;;;;;;2.40;1.00;;;13.50;99.90;;;;;;5116613;27;20451;-72
2021/05/18 17:21:41;;;;;;;4.40;1.70;;;13.30;99.90;;;;;;5118825;27;20963;-73
2021/05/18 17:24:12;;;;;;;2.80;1.10;;;13.50;99.90;;;;;;5135442;27;20482;-72